createdAt,value
2017-05-03T00:00:55.177Z,1007.74
2017-05-03T00:01:56.611Z,1007.82
2017-05-03T00:02:58.032Z,1007.78
2017-05-03T00:03:59.454Z,1007.81
2017-05-03T00:05:00.884Z,1007.80
2017-05-03T00:06:02.303Z,1007.84
2017-05-03T00:07:03.728Z,1007.78
2017-05-03T00:08:05.156Z,1007.81
2017-05-03T00:09:06.579Z,1007.82
2017-05-03T00:10:08.002Z,1007.76
2017-05-03T00:11:09.429Z,1007.78
2017-05-03T00:12:10.844Z,1007.81
2017-05-03T00:13:12.276Z,1007.85
2017-05-03T00:14:13.701Z,1007.74
2017-05-03T00:15:15.124Z,1007.77
2017-05-03T00:16:16.549Z,1007.76
2017-05-03T00:17:17.974Z,1007.77
2017-05-03T00:18:19.399Z,1007.81
2017-05-03T00:19:20.831Z,1007.75
2017-05-03T00:20:22.270Z,1007.74
2017-05-03T00:21:23.676Z,1007.79
2017-05-03T00:22:25.100Z,1007.81
2017-05-03T00:23:26.522Z,1007.82
2017-05-03T00:24:27.940Z,1007.82
2017-05-03T00:25:29.357Z,1007.84
2017-05-03T00:26:30.778Z,1007.81
2017-05-03T00:27:32.204Z,1007.81
2017-05-03T00:28:33.632Z,1007.82
2017-05-03T00:29:35.051Z,1007.82
2017-05-03T00:30:36.479Z,1007.87
2017-05-03T00:31:37.923Z,1007.87
2017-05-03T00:32:39.335Z,1007.84
2017-05-03T00:33:40.758Z,1007.83
2017-05-03T00:34:42.185Z,1007.86
2017-05-03T00:35:43.610Z,1007.85
2017-05-03T00:36:45.041Z,1007.93
2017-05-03T00:37:46.463Z,1007.91
2017-05-03T00:38:47.886Z,1007.90
2017-05-03T00:39:49.310Z,1007.88
2017-05-03T00:40:50.744Z,1007.94
2017-05-03T00:41:52.162Z,1007.96
2017-05-03T00:42:53.592Z,1007.94
2017-05-03T00:43:55.016Z,1007.91
2017-05-03T00:44:56.436Z,1007.95
2017-05-03T00:45:57.855Z,1007.91
2017-05-03T00:46:59.275Z,1007.93
2017-05-03T00:48:00.697Z,1007.96
2017-05-03T00:49:02.111Z,1007.94
2017-05-03T00:50:03.536Z,1007.94
2017-05-03T00:51:04.953Z,1007.94
2017-05-03T00:52:06.378Z,1007.89
2017-05-03T00:53:07.798Z,1007.91
2017-05-03T00:54:09.219Z,1007.86
2017-05-03T00:55:10.643Z,1007.85
2017-05-03T00:56:12.069Z,1007.92
2017-05-03T00:57:13.488Z,1007.90
2017-05-03T00:58:14.938Z,1007.82
2017-05-03T00:59:16.358Z,1007.84
2017-05-03T01:00:17.775Z,1007.86
2017-05-03T01:01:19.206Z,1007.83
2017-05-03T01:02:20.627Z,1007.84
2017-05-03T01:03:22.051Z,1007.84
2017-05-03T01:04:23.469Z,1007.88
2017-05-03T01:05:24.891Z,1007.84
2017-05-03T01:06:26.325Z,1007.92
2017-05-03T01:07:27.739Z,1007.88
2017-05-03T01:08:29.168Z,1007.91
2017-05-03T01:09:30.588Z,1007.92
2017-05-03T01:10:32.014Z,1007.94
2017-05-03T01:11:33.436Z,1007.92
2017-05-03T01:12:34.862Z,1007.93
2017-05-03T01:13:36.281Z,1007.89
2017-05-03T01:14:37.715Z,1007.93
2017-05-03T01:15:39.140Z,1007.95
2017-05-03T01:16:40.567Z,1007.92
2017-05-03T01:17:41.987Z,1007.92
2017-05-03T01:18:43.405Z,1007.92
2017-05-03T01:19:44.837Z,1007.89
2017-05-03T01:20:46.261Z,1007.88
2017-05-03T01:21:47.677Z,1007.91
2017-05-03T01:22:49.104Z,1007.89
2017-05-03T01:23:50.520Z,1007.86
2017-05-03T01:24:51.942Z,1007.91
2017-05-03T01:25:53.365Z,1007.88
2017-05-03T01:26:54.786Z,1007.89
2017-05-03T01:27:56.204Z,1007.93
2017-05-03T01:28:57.677Z,1007.89
2017-05-03T01:29:59.052Z,1007.90
2017-05-03T01:31:00.477Z,1007.87
2017-05-03T01:32:01.900Z,1007.86
2017-05-03T01:33:03.329Z,1007.92
2017-05-03T01:34:04.750Z,1007.92
2017-05-03T01:35:06.170Z,1007.94
2017-05-03T01:36:07.589Z,1007.90
2017-05-03T01:37:09.015Z,1007.96
2017-05-03T01:38:10.438Z,1007.93
2017-05-03T01:39:11.861Z,1007.97
2017-05-03T01:40:13.281Z,1007.96
2017-05-03T01:41:14.699Z,1007.97
2017-05-03T01:42:16.120Z,1007.94
2017-05-03T01:43:17.547Z,1007.93
2017-05-03T01:44:18.978Z,1007.96
2017-05-03T01:45:20.397Z,1008.03
2017-05-03T01:46:21.838Z,1007.99
2017-05-03T01:47:23.352Z,1008.00
2017-05-03T01:48:24.771Z,1008.05
2017-05-03T01:49:26.190Z,1008.03
2017-05-03T01:50:27.620Z,1008.02
2017-05-03T01:51:29.050Z,1008.00
2017-05-03T01:52:30.472Z,1008.06
2017-05-03T01:53:31.896Z,1008.04
2017-05-03T01:54:33.328Z,1008.09
2017-05-03T01:55:34.754Z,1008.04
2017-05-03T01:56:36.179Z,1008.06
2017-05-03T01:57:37.599Z,1008.07
2017-05-03T01:58:39.025Z,1008.05
2017-05-03T01:59:40.449Z,1008.04
2017-05-03T02:00:41.881Z,1008.05
2017-05-03T02:01:43.297Z,1008.00
2017-05-03T02:02:44.715Z,1008.03
2017-05-03T02:03:46.135Z,1008.00
2017-05-03T02:04:47.571Z,1008.02
2017-05-03T02:05:48.992Z,1008.08
2017-05-03T02:06:50.417Z,1008.05
2017-05-03T02:07:51.838Z,1008.05
2017-05-03T02:08:53.257Z,1008.02
2017-05-03T02:09:54.678Z,1008.07
2017-05-03T02:10:56.099Z,1008.04
2017-05-03T02:11:57.515Z,1008.03
2017-05-03T02:12:58.942Z,1008.06
2017-05-03T02:14:00.358Z,1008.05
2017-05-03T02:15:01.787Z,1008.01
2017-05-03T02:16:03.210Z,1008.03
2017-05-03T02:17:04.634Z,1008.02
2017-05-03T02:18:06.057Z,1007.96
2017-05-03T02:19:07.485Z,1008.03
2017-05-03T02:20:08.904Z,1008.00
2017-05-03T02:21:10.328Z,1007.98
2017-05-03T02:22:11.747Z,1007.97
2017-05-03T02:23:13.166Z,1007.97
2017-05-03T02:24:14.589Z,1007.98
2017-05-03T02:25:16.013Z,1007.98
2017-05-03T02:26:17.437Z,1007.90
2017-05-03T02:27:18.860Z,1007.98
2017-05-03T02:28:20.291Z,1007.99
2017-05-03T02:29:21.713Z,1007.89
2017-05-03T02:30:23.141Z,1007.94
2017-05-03T02:31:24.563Z,1007.89
2017-05-03T02:32:26.001Z,1007.91
2017-05-03T02:33:27.415Z,1007.87
2017-05-03T02:34:29.358Z,1007.90
2017-05-03T02:35:30.776Z,1007.90
2017-05-03T02:36:32.196Z,1007.91
2017-05-03T02:37:33.619Z,1007.87
2017-05-03T02:38:35.054Z,1007.88
2017-05-03T02:39:36.478Z,1007.92
2017-05-03T02:40:37.902Z,1007.95
2017-05-03T02:41:39.330Z,1007.93
2017-05-03T02:42:40.754Z,1007.93
2017-05-03T02:43:42.176Z,1007.97
2017-05-03T02:44:43.597Z,1007.97
2017-05-03T02:45:45.017Z,1007.97
2017-05-03T02:46:46.445Z,1008.01
2017-05-03T02:47:47.872Z,1007.99
2017-05-03T02:48:49.298Z,1008.02
2017-05-03T02:49:50.727Z,1008.00
2017-05-03T02:50:52.152Z,1008.02
2017-05-03T02:51:53.576Z,1008.02
2017-05-03T02:52:54.998Z,1007.95
2017-05-03T02:53:56.419Z,1007.97
2017-05-03T02:54:57.838Z,1007.95
2017-05-03T02:55:59.257Z,1007.98
2017-05-03T02:57:00.676Z,1008.02
2017-05-03T02:58:02.101Z,1007.97
2017-05-03T02:59:03.537Z,1007.98
2017-05-03T03:00:04.959Z,1007.94
2017-05-03T03:01:06.387Z,1008.02
2017-05-03T03:02:07.815Z,1008.00
2017-05-03T03:03:09.254Z,1008.00
2017-05-03T03:04:10.669Z,1007.97
2017-05-03T03:05:12.098Z,1008.01
2017-05-03T03:06:13.541Z,1008.02
2017-05-03T03:07:14.993Z,1007.98
2017-05-03T03:08:16.397Z,1007.98
2017-05-03T03:09:17.822Z,1007.99
2017-05-03T03:10:19.251Z,1007.98
2017-05-03T03:11:20.671Z,1008.01
2017-05-03T03:12:22.090Z,1008.04
2017-05-03T03:13:23.514Z,1008.00
2017-05-03T03:14:24.936Z,1008.03
2017-05-03T03:15:26.359Z,1008.03
2017-05-03T03:16:27.771Z,1008.03
2017-05-03T03:17:29.235Z,1008.02
2017-05-03T03:18:30.621Z,1008.01
2017-05-03T03:19:32.045Z,1008.04
2017-05-03T03:20:33.461Z,1008.00
2017-05-03T03:21:34.882Z,1008.02
2017-05-03T03:22:36.302Z,1008.02
2017-05-03T03:23:37.722Z,1008.01
2017-05-03T03:24:39.152Z,1008.02
2017-05-03T03:25:40.574Z,1008.02
2017-05-03T03:26:41.991Z,1008.04
2017-05-03T03:27:43.418Z,1008.09
2017-05-03T03:28:44.849Z,1008.07
2017-05-03T03:29:46.261Z,1008.08
2017-05-03T03:30:47.690Z,1008.08
2017-05-03T03:31:49.117Z,1008.08
2017-05-03T03:32:50.546Z,1008.06
2017-05-03T03:33:52.010Z,1008.07
2017-05-03T03:34:53.445Z,1008.06
2017-05-03T03:35:54.864Z,1008.04
2017-05-03T03:36:56.288Z,1008.03
2017-05-03T03:37:57.715Z,1008.05
2017-05-03T03:38:59.143Z,1008.01
2017-05-03T03:40:00.619Z,1008.03
2017-05-03T03:41:02.082Z,1007.98
2017-05-03T03:42:03.508Z,1008.04
2017-05-03T03:43:04.928Z,1008.04
2017-05-03T03:44:06.359Z,1008.03
2017-05-03T03:45:07.776Z,1008.01
2017-05-03T03:46:09.201Z,1008.06
2017-05-03T03:47:10.617Z,1008.10
2017-05-03T03:48:12.039Z,1008.05
2017-05-03T03:49:13.461Z,1008.11
2017-05-03T03:50:14.882Z,1008.13
2017-05-03T03:51:16.307Z,1008.08
2017-05-03T03:52:17.733Z,1008.12
2017-05-03T03:53:19.157Z,1008.12
2017-05-03T03:54:20.581Z,1008.12
2017-05-03T03:55:22.004Z,1008.13
2017-05-03T03:56:23.430Z,1008.13
2017-05-03T03:57:24.846Z,1008.10
2017-05-03T03:58:26.281Z,1008.13
2017-05-03T03:59:27.703Z,1008.15
2017-05-03T04:00:29.142Z,1008.16
2017-05-03T04:01:30.572Z,1008.16
2017-05-03T04:02:31.995Z,1008.16
2017-05-03T04:03:33.433Z,1008.16
2017-05-03T04:04:34.862Z,1008.20
2017-05-03T04:05:36.286Z,1008.24
2017-05-03T04:06:37.793Z,1008.24
2017-05-03T04:07:39.221Z,1008.25
2017-05-03T04:08:40.641Z,1008.29
2017-05-03T04:09:42.063Z,1008.31
2017-05-03T04:10:43.515Z,1008.32
2017-05-03T04:11:44.982Z,1008.31
2017-05-03T04:12:46.405Z,1008.32
2017-05-03T04:13:47.827Z,1008.32
2017-05-03T04:14:49.341Z,1008.35
2017-05-03T04:15:50.769Z,1008.33
2017-05-03T04:16:52.190Z,1008.38
2017-05-03T04:17:53.617Z,1008.41
2017-05-03T04:18:55.096Z,1008.35
2017-05-03T04:19:56.518Z,1008.38
2017-05-03T04:20:57.946Z,1008.39
2017-05-03T04:21:59.371Z,1008.45
2017-05-03T04:23:00.832Z,1008.41
2017-05-03T04:24:02.219Z,1008.44
2017-05-03T04:25:03.670Z,1008.43
2017-05-03T04:26:05.164Z,1008.46
2017-05-03T04:27:06.599Z,1008.48
2017-05-03T04:28:08.021Z,1008.50
2017-05-03T04:29:09.440Z,1008.48
2017-05-03T04:30:10.863Z,1008.50
2017-05-03T04:31:12.284Z,1008.50
2017-05-03T04:32:13.708Z,1008.46
2017-05-03T04:33:15.139Z,1008.45
2017-05-03T04:34:16.566Z,1008.44
2017-05-03T04:35:17.996Z,1008.46
2017-05-03T04:36:19.421Z,1008.48
2017-05-03T04:37:20.844Z,1008.48
2017-05-03T04:38:22.272Z,1008.55
2017-05-03T04:39:23.699Z,1008.52
2017-05-03T04:40:25.124Z,1008.51
2017-05-03T04:41:26.560Z,1008.56
2017-05-03T04:42:27.988Z,1008.49
2017-05-03T04:43:29.404Z,1008.49
2017-05-03T04:44:30.839Z,1008.54
2017-05-03T04:45:32.258Z,1008.56
2017-05-03T04:46:33.680Z,1008.58
2017-05-03T04:47:35.121Z,1008.57
2017-05-03T04:48:36.546Z,1008.62
2017-05-03T04:49:37.967Z,1008.58
2017-05-03T04:50:39.399Z,1008.62
2017-05-03T04:51:40.831Z,1008.63
2017-05-03T04:52:42.248Z,1008.61
2017-05-03T04:53:43.672Z,1008.59
2017-05-03T04:54:45.099Z,1008.61
2017-05-03T04:55:46.529Z,1008.62
2017-05-03T04:56:47.946Z,1008.62
2017-05-03T04:57:49.374Z,1008.67
2017-05-03T04:58:50.798Z,1008.65
2017-05-03T04:59:52.220Z,1008.66
2017-05-03T05:00:53.651Z,1008.65
2017-05-03T05:01:55.072Z,1008.70
2017-05-03T05:02:56.499Z,1008.74
2017-05-03T05:03:57.931Z,1008.75
2017-05-03T05:04:59.368Z,1008.78
2017-05-03T05:06:00.809Z,1008.79
2017-05-03T05:07:02.227Z,1008.80
2017-05-03T05:08:03.668Z,1008.76
2017-05-03T05:09:05.089Z,1008.77
2017-05-03T05:10:06.519Z,1008.77
2017-05-03T05:11:07.952Z,1008.79
2017-05-03T05:12:09.373Z,1008.81
2017-05-03T05:13:10.798Z,1008.82
2017-05-03T05:14:12.227Z,1008.82
2017-05-03T05:15:13.654Z,1008.86
2017-05-03T05:16:15.077Z,1008.84
2017-05-03T05:17:16.509Z,1008.84
2017-05-03T05:18:17.929Z,1008.88
2017-05-03T05:19:19.363Z,1008.93
2017-05-03T05:20:20.804Z,1008.92
2017-05-03T05:21:22.234Z,1008.94
2017-05-03T05:22:23.671Z,1008.92
2017-05-03T05:23:25.101Z,1008.90
2017-05-03T05:24:26.528Z,1008.92
2017-05-03T05:25:27.949Z,1008.97
2017-05-03T05:26:29.377Z,1008.98
2017-05-03T05:27:30.800Z,1008.98
2017-05-03T05:28:32.224Z,1009.02
2017-05-03T05:29:33.654Z,1009.00
2017-05-03T05:30:35.088Z,1008.98
2017-05-03T05:31:36.525Z,1009.04
2017-05-03T05:32:37.964Z,1008.99
2017-05-03T05:33:39.392Z,1009.07
2017-05-03T05:34:40.831Z,1009.08
2017-05-03T05:35:42.253Z,1009.06
2017-05-03T05:36:43.684Z,1009.08
2017-05-03T05:37:45.122Z,1009.09
2017-05-03T05:38:46.544Z,1009.13
2017-05-03T05:39:47.980Z,1009.16
2017-05-03T05:40:49.409Z,1009.16
2017-05-03T05:41:50.838Z,1009.17
2017-05-03T05:42:52.271Z,1009.15
2017-05-03T05:43:53.697Z,1009.17
2017-05-03T05:44:55.123Z,1009.19
2017-05-03T05:45:56.551Z,1009.20
2017-05-03T05:46:57.973Z,1009.26
2017-05-03T05:47:59.406Z,1009.24
2017-05-03T05:49:00.828Z,1009.25
2017-05-03T05:50:02.266Z,1009.32
2017-05-03T05:51:03.685Z,1009.34
2017-05-03T05:52:05.109Z,1009.33
2017-05-03T05:53:06.534Z,1009.39
2017-05-03T05:54:07.960Z,1009.37
2017-05-03T05:55:09.385Z,1009.39
2017-05-03T05:56:10.812Z,1009.41
2017-05-03T05:57:12.241Z,1009.42
2017-05-03T05:58:13.667Z,1009.41
2017-05-03T05:59:15.095Z,1009.40
2017-05-03T06:00:16.521Z,1009.41
2017-05-03T06:01:17.949Z,1009.36
2017-05-03T06:02:19.378Z,1009.39
2017-05-03T06:03:20.801Z,1009.39
2017-05-03T06:04:22.223Z,1009.32
2017-05-03T06:05:23.645Z,1009.35
2017-05-03T06:06:25.066Z,1009.35
2017-05-03T06:07:26.489Z,1009.40
2017-05-03T06:08:27.910Z,1009.36
2017-05-03T06:09:29.337Z,1009.40
2017-05-03T06:10:30.774Z,1009.42
2017-05-03T06:11:32.200Z,1009.44
2017-05-03T06:12:33.635Z,1009.46
2017-05-03T06:13:35.068Z,1009.45
2017-05-03T06:14:36.494Z,1009.49
2017-05-03T06:15:37.921Z,1009.46
2017-05-03T06:16:39.352Z,1009.44
2017-05-03T06:17:40.783Z,1009.45
2017-05-03T06:18:42.223Z,1009.48
2017-05-03T06:19:43.661Z,1009.52
2017-05-03T06:20:45.090Z,1009.51
2017-05-03T06:21:46.516Z,1009.56
2017-05-03T06:22:47.953Z,1009.62
2017-05-03T06:23:49.398Z,1009.55
2017-05-03T06:24:50.819Z,1009.57
2017-05-03T06:25:52.245Z,1009.62
2017-05-03T06:26:53.677Z,1009.65
2017-05-03T06:27:55.100Z,1009.69
2017-05-03T06:28:56.527Z,1009.65
2017-05-03T06:29:57.967Z,1009.73
2017-05-03T06:30:59.394Z,1009.67
2017-05-03T06:32:00.822Z,1009.69
2017-05-03T06:33:02.244Z,1009.69
2017-05-03T06:34:03.682Z,1009.71
2017-05-03T06:35:05.133Z,1009.73
2017-05-03T06:36:06.563Z,1009.71
2017-05-03T06:37:07.993Z,1009.69
2017-05-03T06:38:09.424Z,1009.69
2017-05-03T06:39:10.851Z,1009.70
2017-05-03T06:40:12.290Z,1009.65
2017-05-03T06:41:13.727Z,1009.69
2017-05-03T06:42:15.153Z,1009.69
2017-05-03T06:43:16.585Z,1009.73
2017-05-03T06:44:18.013Z,1009.69
2017-05-03T06:45:19.438Z,1009.75
2017-05-03T06:46:20.875Z,1009.77
2017-05-03T06:47:22.301Z,1009.78
2017-05-03T06:48:23.746Z,1009.78
2017-05-03T06:49:25.171Z,1009.79
2017-05-03T06:50:26.605Z,1009.74
2017-05-03T06:51:28.034Z,1009.78
2017-05-03T06:52:29.458Z,1009.78
2017-05-03T06:53:30.883Z,1009.76
2017-05-03T06:54:32.314Z,1009.83
2017-05-03T06:55:33.742Z,1009.85
2017-05-03T06:56:35.172Z,1009.79
2017-05-03T06:57:36.597Z,1009.85
2017-05-03T06:58:38.023Z,1009.83
2017-05-03T06:59:39.448Z,1009.84
2017-05-03T07:00:40.885Z,1009.82
2017-05-03T07:01:42.306Z,1009.81
2017-05-03T07:02:43.730Z,1009.79
2017-05-03T07:03:45.164Z,1009.87
2017-05-03T07:04:46.593Z,1009.82
2017-05-03T07:05:48.025Z,1009.74
2017-05-03T07:06:49.477Z,1009.74
2017-05-03T07:07:50.902Z,1009.74
2017-05-03T07:08:52.334Z,1009.71
2017-05-03T07:09:53.761Z,1009.72
2017-05-03T07:10:55.192Z,1009.72
2017-05-03T07:11:56.617Z,1009.73
2017-05-03T07:12:58.041Z,1009.71
2017-05-03T07:13:59.472Z,1009.74
2017-05-03T07:15:00.899Z,1009.76
2017-05-03T07:16:02.326Z,1009.75
2017-05-03T07:17:03.750Z,1009.75
2017-05-03T07:18:05.189Z,1009.71
2017-05-03T07:19:06.618Z,1009.71
2017-05-03T07:20:08.050Z,1009.75
2017-05-03T07:21:09.476Z,1009.71
2017-05-03T07:22:10.903Z,1009.81
2017-05-03T07:23:12.329Z,1009.79
2017-05-03T07:24:13.762Z,1009.81
2017-05-03T07:25:15.199Z,1009.83
2017-05-03T07:26:16.628Z,1009.81
2017-05-03T07:27:18.058Z,1009.85
2017-05-03T07:28:19.485Z,1009.87
2017-05-03T07:29:20.925Z,1009.86
2017-05-03T07:30:22.349Z,1009.87
2017-05-03T07:31:23.781Z,1009.85
2017-05-03T07:32:25.203Z,1009.82
2017-05-03T07:33:26.637Z,1009.85
2017-05-03T07:34:28.067Z,1009.85
2017-05-03T07:35:29.504Z,1009.78
2017-05-03T07:36:30.940Z,1009.82
2017-05-03T07:37:32.375Z,1009.80
2017-05-03T07:38:33.824Z,1009.82
2017-05-03T07:39:35.260Z,1009.81
2017-05-03T07:40:36.691Z,1009.80
2017-05-03T07:41:38.116Z,1009.84
2017-05-03T07:42:39.552Z,1009.82
2017-05-03T07:43:40.983Z,1009.85
2017-05-03T07:44:42.427Z,1009.81
2017-05-03T07:45:43.852Z,1009.87
2017-05-03T07:46:45.282Z,1009.85
2017-05-03T07:47:46.711Z,1009.87
2017-05-03T07:48:48.131Z,1009.86
2017-05-03T07:49:49.578Z,1009.90
2017-05-03T07:50:51.166Z,1009.91
2017-05-03T07:51:52.592Z,1009.91
2017-05-03T07:52:54.028Z,1009.93
2017-05-03T07:53:55.460Z,1009.95
2017-05-03T07:54:56.888Z,1009.96
2017-05-03T07:55:58.321Z,1009.95
2017-05-03T07:57:00.539Z,1010.02
2017-05-03T07:58:01.962Z,1010.02
2017-05-03T07:59:03.393Z,1010.09
2017-05-03T08:00:04.820Z,1010.12
2017-05-03T08:01:06.251Z,1010.12
2017-05-03T08:02:07.685Z,1010.14
2017-05-03T08:03:09.108Z,1010.10
2017-05-03T08:04:10.537Z,1010.12
2017-05-03T08:05:11.969Z,1010.17
2017-05-03T08:06:13.406Z,1010.22
2017-05-03T08:07:14.847Z,1010.20
2017-05-03T08:08:16.274Z,1010.23
2017-05-03T08:09:17.705Z,1010.25
2017-05-03T08:10:19.133Z,1010.27
2017-05-03T08:11:20.557Z,1010.24
2017-05-03T08:12:21.996Z,1010.33
2017-05-03T08:13:23.422Z,1010.32
2017-05-03T08:14:24.856Z,1010.31
2017-05-03T08:15:26.288Z,1010.30
2017-05-03T08:16:27.716Z,1010.29
2017-05-03T08:17:29.141Z,1010.31
2017-05-03T08:18:30.572Z,1010.31
2017-05-03T08:19:31.999Z,1010.29
2017-05-03T08:20:33.429Z,1010.28
2017-05-03T08:21:34.867Z,1010.30
2017-05-03T08:22:36.296Z,1010.29
2017-05-03T08:23:37.723Z,1010.25
2017-05-03T08:24:39.156Z,1010.30
2017-05-03T08:25:40.591Z,1010.33
2017-05-03T08:26:42.017Z,1010.42
2017-05-03T08:27:43.452Z,1010.41
2017-05-03T08:28:44.879Z,1010.38
2017-05-03T08:29:46.311Z,1010.44
2017-05-03T08:30:47.737Z,1010.41
2017-05-03T08:31:49.165Z,1010.38
2017-05-03T08:32:50.593Z,1010.38
2017-05-03T08:33:52.029Z,1010.28
2017-05-03T08:34:53.462Z,1010.35
2017-05-03T08:35:54.894Z,1010.34
2017-05-03T08:36:56.322Z,1010.34
2017-05-03T08:37:57.754Z,1010.39
2017-05-03T08:38:59.180Z,1010.41
2017-05-03T08:40:00.610Z,1010.41
2017-05-03T08:41:02.046Z,1010.44
2017-05-03T08:42:03.480Z,1010.46
2017-05-03T08:43:04.902Z,1010.45
2017-05-03T08:44:06.331Z,1010.46
2017-05-03T08:45:07.763Z,1010.44
2017-05-03T08:46:09.195Z,1010.39
2017-05-03T08:47:10.620Z,1010.36
2017-05-03T08:48:12.050Z,1010.33
2017-05-03T08:49:13.480Z,1010.42
2017-05-03T08:50:14.917Z,1010.39
2017-05-03T08:51:16.340Z,1010.39
2017-05-03T08:52:17.794Z,1010.41
2017-05-03T08:53:19.265Z,1010.49
2017-05-03T08:54:20.702Z,1010.47
2017-05-03T08:55:22.132Z,1010.51
2017-05-03T08:56:23.583Z,1010.50
2017-05-03T08:57:25.013Z,1010.56
2017-05-03T08:58:26.443Z,1010.51
2017-05-03T08:59:27.873Z,1010.59
2017-05-03T09:00:29.323Z,1010.55
2017-05-03T09:01:30.752Z,1010.55
2017-05-03T09:02:32.195Z,1010.61
2017-05-03T09:03:33.637Z,1010.62
2017-05-03T09:04:35.099Z,1010.60
2017-05-03T09:05:36.527Z,1010.57
2017-05-03T09:06:37.968Z,1010.52
2017-05-03T09:07:39.401Z,1010.59
2017-05-03T09:08:40.839Z,1010.58
2017-05-03T09:09:42.272Z,1010.59
2017-05-03T09:10:43.699Z,1010.56
2017-05-03T09:11:45.209Z,1010.56
2017-05-03T09:12:46.641Z,1010.57
2017-05-03T09:13:48.076Z,1010.59
2017-05-03T09:14:49.537Z,1010.63
2017-05-03T09:15:50.969Z,1010.63
2017-05-03T09:16:52.398Z,1010.55
2017-05-03T09:17:53.914Z,1010.60
2017-05-03T09:18:55.340Z,1010.67
2017-05-03T09:19:56.774Z,1010.65
2017-05-03T09:20:58.203Z,1010.66
2017-05-03T09:21:59.679Z,1010.67
2017-05-03T09:23:01.114Z,1010.65
2017-05-03T09:24:02.539Z,1010.67
2017-05-03T09:25:03.970Z,1010.71
2017-05-03T09:26:05.402Z,1010.75
2017-05-03T09:27:06.836Z,1010.72
2017-05-03T09:28:08.267Z,1010.73
2017-05-03T09:29:09.743Z,1010.73
2017-05-03T09:30:11.184Z,1010.77
2017-05-03T09:31:12.612Z,1010.77
2017-05-03T09:32:14.042Z,1010.80
2017-05-03T09:33:15.469Z,1010.80
2017-05-03T09:34:16.902Z,1010.80
2017-05-03T09:35:18.340Z,1010.85
2017-05-03T09:36:19.816Z,1010.86
2017-05-03T09:37:21.250Z,1010.87
2017-05-03T09:38:22.685Z,1010.91
2017-05-03T09:39:24.111Z,1010.82
2017-05-03T09:40:25.655Z,1010.93
2017-05-03T09:41:27.097Z,1010.91
2017-05-03T09:42:28.526Z,1010.90
2017-05-03T09:43:29.959Z,1010.92
2017-05-03T09:44:31.395Z,1010.93
2017-05-03T09:45:32.831Z,1010.86
2017-05-03T09:46:34.264Z,1010.88
2017-05-03T09:47:35.768Z,1010.97
2017-05-03T09:48:37.211Z,1010.96
2017-05-03T09:49:38.671Z,1010.92
2017-05-03T09:50:40.077Z,1010.99
2017-05-03T09:51:41.511Z,1011.01
2017-05-03T09:52:42.942Z,1010.96
2017-05-03T09:53:44.371Z,1011.00
2017-05-03T09:54:45.848Z,1011.00
2017-05-03T09:55:47.280Z,1010.99
2017-05-03T09:56:48.713Z,1011.14
2017-05-03T09:57:50.149Z,1011.15
2017-05-03T09:58:51.579Z,1011.14
2017-05-03T09:59:53.133Z,1011.06
2017-05-03T10:00:54.572Z,1011.03
2017-05-03T10:01:56.006Z,1011.05
2017-05-03T10:02:57.443Z,1010.99
2017-05-03T10:03:58.876Z,1011.03
2017-05-03T10:05:00.312Z,1011.02
2017-05-03T10:06:01.787Z,1011.07
2017-05-03T10:07:03.214Z,1011.06
2017-05-03T10:08:04.650Z,1011.08
2017-05-03T10:09:06.091Z,1011.06
2017-05-03T10:10:07.525Z,1011.03
2017-05-03T10:11:08.957Z,1011.02
2017-05-03T10:12:10.383Z,1011.03
2017-05-03T10:13:11.839Z,1011.06
2017-05-03T10:14:13.345Z,1010.99
2017-05-03T10:15:14.777Z,1010.99
2017-05-03T10:16:16.205Z,1011.03
2017-05-03T10:17:17.631Z,1011.06
2017-05-03T10:18:19.088Z,1011.10
2017-05-03T10:19:20.492Z,1011.04
2017-05-03T10:20:21.939Z,1011.06
2017-05-03T10:21:23.408Z,1011.03
2017-05-03T10:22:24.839Z,1011.03
2017-05-03T10:23:26.261Z,1011.05
2017-05-03T10:24:27.703Z,1011.03
2017-05-03T10:25:29.149Z,1011.07
2017-05-03T10:26:30.580Z,1011.10
2017-05-03T10:27:32.009Z,1011.15
2017-05-03T10:28:33.447Z,1011.19
2017-05-03T10:29:34.924Z,1011.16
2017-05-03T10:30:36.367Z,1011.20
2017-05-03T10:31:37.805Z,1011.17
2017-05-03T10:32:39.736Z,1011.15
2017-05-03T10:33:41.178Z,1011.11
2017-05-03T10:34:42.615Z,1011.12
2017-05-03T10:35:44.040Z,1011.12
2017-05-03T10:36:45.477Z,1011.15
2017-05-03T10:37:46.908Z,1011.17
2017-05-03T10:38:48.338Z,1011.07
2017-05-03T10:39:49.772Z,1011.04
2017-05-03T10:40:51.209Z,1011.10
2017-05-03T10:41:52.645Z,1011.10
2017-05-03T10:42:54.069Z,1011.07
2017-05-03T10:43:55.500Z,1011.07
2017-05-03T10:44:56.927Z,1011.05
2017-05-03T10:45:58.368Z,1011.07
2017-05-03T10:46:59.795Z,1011.10
2017-05-03T10:48:01.225Z,1011.16
2017-05-03T10:49:02.651Z,1011.14
2017-05-03T10:50:04.092Z,1011.19
2017-05-03T10:51:05.515Z,1011.18
2017-05-03T10:52:06.951Z,1011.20
2017-05-03T10:53:08.379Z,1011.19
2017-05-03T10:54:09.822Z,1011.12
2017-05-03T10:55:11.264Z,1011.12
2017-05-03T10:56:12.688Z,1011.17
2017-05-03T10:57:14.122Z,1011.20
2017-05-03T10:58:15.557Z,1011.27
2017-05-03T10:59:17.007Z,1011.23
2017-05-03T11:00:18.438Z,1011.24
2017-05-03T11:01:19.878Z,1011.21
2017-05-03T11:02:21.305Z,1011.18
2017-05-03T11:03:22.735Z,1011.22
2017-05-03T11:04:24.159Z,1011.23
2017-05-03T11:05:25.588Z,1011.19
2017-05-03T11:06:27.021Z,1011.16
2017-05-03T11:07:28.456Z,1011.16
2017-05-03T11:08:29.885Z,1011.15
2017-05-03T11:09:31.329Z,1011.09
2017-05-03T11:10:32.770Z,1011.12
2017-05-03T11:11:34.201Z,1011.18
2017-05-03T11:12:35.637Z,1011.16
2017-05-03T11:13:37.071Z,1011.12
2017-05-03T11:14:38.499Z,1011.09
2017-05-03T11:15:39.932Z,1011.09
2017-05-03T11:16:41.360Z,1011.11
2017-05-03T11:17:42.795Z,1011.12
2017-05-03T11:18:44.230Z,1011.11
2017-05-03T11:19:45.664Z,1011.07
2017-05-03T11:20:47.103Z,1011.12
2017-05-03T11:21:48.529Z,1011.11
2017-05-03T11:22:49.961Z,1011.11
2017-05-03T11:23:51.402Z,1011.10
2017-05-03T11:24:52.837Z,1011.11
2017-05-03T11:25:54.268Z,1011.06
2017-05-03T11:26:55.730Z,1011.06
2017-05-03T11:27:57.189Z,1011.03
2017-05-03T11:28:58.606Z,1011.06
2017-05-03T11:30:00.035Z,1011.06
2017-05-03T11:31:01.578Z,1011.13
2017-05-03T11:32:03.073Z,1011.12
2017-05-03T11:33:04.504Z,1011.03
2017-05-03T11:34:05.939Z,1011.09
2017-05-03T11:35:07.409Z,1011.14
2017-05-03T11:36:08.844Z,1011.12
2017-05-03T11:37:10.270Z,1011.09
2017-05-03T11:38:11.717Z,1011.10
2017-05-03T11:39:13.179Z,1011.09
2017-05-03T11:40:14.610Z,1011.14
2017-05-03T11:41:16.044Z,1011.14
2017-05-03T11:42:17.540Z,1011.08
2017-05-03T11:43:18.981Z,1011.02
2017-05-03T11:44:20.414Z,1011.05
2017-05-03T11:45:21.850Z,1011.06
2017-05-03T11:46:23.327Z,1011.06
2017-05-03T11:47:24.773Z,1011.04
2017-05-03T11:48:26.198Z,1011.05
2017-05-03T11:49:27.633Z,1011.02
2017-05-03T11:50:29.067Z,1011.02
2017-05-03T11:51:30.499Z,1011.03
2017-05-03T11:52:31.924Z,1011.06
2017-05-03T11:53:33.362Z,1011.05
2017-05-03T11:54:34.793Z,1011.09
2017-05-03T11:55:36.224Z,1011.05
2017-05-03T11:56:37.655Z,1011.07
2017-05-03T11:57:39.092Z,1011.09
2017-05-03T11:58:40.527Z,1011.12
2017-05-03T11:59:41.967Z,1011.08
2017-05-03T12:00:43.421Z,1011.03
2017-05-03T12:01:44.848Z,1011.07
2017-05-03T12:02:46.283Z,1011.07
2017-05-03T12:03:47.800Z,1010.97
2017-05-03T12:04:49.241Z,1010.98
2017-05-03T12:05:50.676Z,1010.96
2017-05-03T12:06:52.139Z,1010.97
2017-05-03T12:07:53.570Z,1010.99
2017-05-03T12:08:55.048Z,1011.03
2017-05-03T12:09:56.481Z,1011.04
2017-05-03T12:10:57.921Z,1011.08
2017-05-03T12:11:59.356Z,1011.08
2017-05-03T12:13:00.791Z,1011.02
2017-05-03T12:14:02.226Z,1011.00
2017-05-03T12:15:03.697Z,1010.97
2017-05-03T12:16:05.137Z,1010.95
2017-05-03T12:17:06.569Z,1010.95
2017-05-03T12:18:08.011Z,1010.92
2017-05-03T12:19:09.447Z,1010.88
2017-05-03T12:20:10.885Z,1010.82
2017-05-03T12:21:12.313Z,1010.88
2017-05-03T12:22:13.807Z,1010.87
2017-05-03T12:23:15.237Z,1010.92